createdAt,value
2023-05-08T00:02:46.101Z,101747.50
2023-05-08T00:07:48.395Z,101749.25
2023-05-08T00:12:51.476Z,101758.84
2023-05-08T00:17:53.277Z,101765.72
2023-05-08T00:22:55.036Z,101765.63
2023-05-08T00:27:58.188Z,101761.16
2023-05-08T00:33:00.246Z,101768.00
2023-05-08T00:38:02.022Z,101768.84
2023-05-08T00:43:05.069Z,101762.56
2023-05-08T00:48:06.826Z,101771.31
2023-05-08T00:53:08.546Z,101772.97
2023-05-08T00:58:11.648Z,101773.84
2023-05-08T01:03:14.125Z,101775.44
2023-05-08T01:08:16.063Z,101770.19
2023-05-08T01:13:23.626Z,101774.38
2023-05-08T01:18:28.137Z,101771.63
2023-05-08T01:23:40.218Z,101771.63
2023-05-08T01:28:54.808Z,101759.09
2023-05-08T01:34:01.856Z,101761.63
2023-05-08T01:39:08.537Z,101767.22
2023-05-08T01:44:12.527Z,101768.94
2023-05-08T01:49:18.047Z,101760.16
2023-05-08T01:54:21.071Z,101760.72
2023-05-08T01:59:23.656Z,101751.81
2023-05-08T02:04:27.132Z,101760.59
2023-05-08T02:09:28.929Z,101757.66
2023-05-08T02:14:30.638Z,101756.03
2023-05-08T02:19:33.647Z,101755.91
2023-05-08T02:24:35.580Z,101754.91
2023-05-08T02:29:37.607Z,101760.84
2023-05-08T02:34:45.176Z,101753.16
2023-05-08T02:39:53.984Z,101754.78
2023-05-08T02:44:56.122Z,101752.06
2023-05-08T02:50:02.445Z,101749.56
2023-05-08T02:55:06.936Z,101746.94
2023-05-08T03:00:12.971Z,101744.34
2023-05-08T03:05:17.577Z,101745.16
2023-05-08T03:10:19.332Z,101740.66
2023-05-08T03:15:23.995Z,101744.22
2023-05-08T03:20:27.188Z,101750.44
2023-05-08T03:25:29.250Z,101741.63
2023-05-08T03:30:31.355Z,101736.97
2023-05-08T03:35:39.459Z,101743.19
2023-05-08T03:40:42.796Z,101733.59
2023-05-08T03:45:45.291Z,101742.91
2023-05-08T03:50:48.566Z,101735.25
2023-05-08T03:55:50.647Z,101739.59
2023-05-08T04:00:58.778Z,101744.06
2023-05-08T04:06:06.836Z,101748.56
2023-05-08T04:11:12.090Z,101757.41
2023-05-08T04:16:16.526Z,101745.06
2023-05-08T04:21:20.506Z,101737.06
2023-05-08T04:26:22.586Z,101751.19
2023-05-08T04:31:26.762Z,101754.78
2023-05-08T04:36:30.746Z,101754.75
2023-05-08T04:41:35.342Z,101761.00
2023-05-08T04:46:37.760Z,101756.69
2023-05-08T04:51:41.131Z,101771.72
2023-05-08T04:56:43.078Z,101754.16
2023-05-08T05:01:45.934Z,101761.09
2023-05-08T05:06:49.296Z,101758.63
2023-05-08T05:11:51.159Z,101777.16
2023-05-08T05:16:53.519Z,101774.84
2023-05-08T05:21:56.688Z,101773.09
2023-05-08T05:26:58.980Z,101776.59
2023-05-08T05:32:01.757Z,101782.72
2023-05-08T05:37:05.048Z,101778.66
2023-05-08T05:42:07.380Z,101782.47
2023-05-08T05:47:10.648Z,101766.88
2023-05-08T05:52:15.262Z,101785.53
2023-05-08T05:57:17.700Z,101785.13
2023-05-08T06:02:20.363Z,101791.41
2023-05-08T06:07:23.720Z,101784.66
2023-05-08T06:12:25.692Z,101775.16
2023-05-08T06:17:27.833Z,101773.75
2023-05-08T06:22:31.519Z,101780.97
2023-05-08T06:27:34.659Z,101779.19
2023-05-08T06:32:36.565Z,101783.69
2023-05-08T06:37:39.907Z,101790.03
2023-05-08T06:42:41.631Z,101781.50
2023-05-08T06:47:43.363Z,101784.22
2023-05-08T06:52:46.406Z,101781.81
2023-05-08T06:57:48.085Z,101784.53
2023-05-08T07:02:49.909Z,101784.59
2023-05-08T07:07:54.231Z,101794.38
2023-05-08T07:12:56.024Z,101791.69
2023-05-08T07:17:57.823Z,101800.56
2023-05-08T07:23:01.180Z,101798.03
2023-05-08T07:28:02.876Z,101799.88
2023-05-08T07:33:04.827Z,101799.06
2023-05-08T07:38:07.972Z,101801.69
2023-05-08T07:43:09.744Z,101793.78
2023-05-08T07:48:11.847Z,101781.16
2023-05-08T07:53:15.131Z,101775.50
2023-05-08T07:58:16.840Z,101771.38
2023-05-08T08:03:18.781Z,101778.41
2023-05-08T08:08:21.961Z,101787.06
2023-05-08T08:13:23.706Z,101778.25
2023-05-08T08:18:25.565Z,101786.13
2023-05-08T08:23:28.595Z,101774.00
2023-05-08T08:28:30.377Z,101777.06
2023-05-08T08:33:32.073Z,101771.38
2023-05-08T08:38:35.078Z,101771.66
2023-05-08T08:43:39.750Z,101767.41
2023-05-08T08:48:43.614Z,101769.66
2023-05-08T08:53:46.812Z,101761.72
2023-05-08T08:58:51.889Z,101760.88
2023-05-08T09:03:53.770Z,101762.09
2023-05-08T09:08:57.946Z,101767.13
2023-05-08T09:13:59.627Z,101764.63
2023-05-08T09:19:03.338Z,101760.94
2023-05-08T09:24:07.127Z,101757.63
2023-05-08T09:29:10.192Z,101753.34
2023-05-08T09:34:23.858Z,101744.97
2023-05-08T09:39:26.884Z,101751.56
2023-05-08T09:44:28.693Z,101761.81
2023-05-08T09:49:30.415Z,101754.97
2023-05-08T09:54:33.492Z,101742.09
2023-05-08T09:59:35.176Z,101737.31
2023-05-08T10:04:37.512Z,101744.47
2023-05-08T10:09:50.385Z,101721.34
2023-05-08T10:14:52.677Z,101727.44
2023-05-08T10:19:56.414Z,101710.38
2023-05-08T10:24:59.541Z,101706.41
2023-05-08T10:30:02.443Z,101701.38
2023-05-08T10:35:05.032Z,101681.72
2023-05-08T10:40:08.872Z,101702.69
2023-05-08T10:45:11.012Z,101695.16
2023-05-08T10:50:19.237Z,101692.47
2023-05-08T10:55:25.535Z,101698.72
2023-05-08T11:00:31.369Z,101702.47
2023-05-08T11:05:44.642Z,101712.84
2023-05-08T11:10:49.864Z,101718.13
2023-05-08T11:15:51.699Z,101701.19
2023-05-08T11:20:58.711Z,101702.97
2023-05-08T11:26:02.675Z,101706.00
2023-05-08T11:31:04.816Z,101705.00
2023-05-08T11:36:13.355Z,101684.03
2023-05-08T11:41:21.989Z,101672.09
2023-05-08T11:46:23.813Z,101683.56
2023-05-08T11:51:25.566Z,101672.75
2023-05-08T11:56:28.621Z,101669.22
2023-05-08T12:01:30.956Z,101650.22
2023-05-08T12:06:34.764Z,101670.63
2023-05-08T12:11:39.166Z,101661.66
2023-05-08T12:16:40.988Z,101663.13
2023-05-08T12:21:47.368Z,101659.78
2023-05-08T12:26:53.452Z,101650.53
2023-05-08T12:31:55.225Z,101656.50
2023-05-08T12:37:03.323Z,101654.63
2023-05-08T12:42:06.490Z,101653.16
2023-05-08T12:47:08.353Z,101645.94
2023-05-08T12:52:12.842Z,101653.09
2023-05-08T12:57:16.546Z,101662.88
2023-05-08T13:02:19.154Z,101652.91
2023-05-08T13:07:20.947Z,101651.38
2023-05-08T13:12:23.987Z,101648.63
2023-05-08T13:17:25.725Z,101650.06
2023-05-08T13:22:27.720Z,101641.34
2023-05-08T13:27:30.769Z,101634.34
2023-05-08T13:32:32.583Z,101623.59
2023-05-08T13:37:34.314Z,101625.69
2023-05-08T13:42:37.431Z,101625.31
2023-05-08T13:47:39.210Z,101627.94
2023-05-08T13:52:40.993Z,101618.44
2023-05-08T13:57:44.074Z,101607.34
2023-05-08T14:02:46.524Z,101612.38
2023-05-08T14:07:48.593Z,101590.19
2023-05-08T14:12:51.803Z,101600.81
2023-05-08T14:17:53.542Z,101587.59
2023-05-08T14:22:59.577Z,101589.78
2023-05-08T14:28:03.283Z,101592.03
2023-05-08T14:33:05.013Z,101588.50
2023-05-08T14:38:06.752Z,101584.56
2023-05-08T14:43:09.788Z,101578.34
2023-05-08T14:48:11.621Z,101572.72
2023-05-08T14:53:13.513Z,101577.84
2023-05-08T14:58:16.715Z,101571.72
2023-05-08T15:03:18.694Z,101556.72
2023-05-08T15:08:20.535Z,101562.28
2023-05-08T15:13:23.600Z,101562.13
2023-05-08T15:18:28.378Z,101556.72
2023-05-08T15:23:30.098Z,101558.66
2023-05-08T15:28:33.122Z,101540.06
2023-05-08T15:33:34.817Z,101543.94
2023-05-08T15:38:36.476Z,101550.41
2023-05-08T15:43:39.610Z,101539.94
2023-05-08T15:48:41.286Z,101537.47
2023-05-08T15:53:42.958Z,101538.94
2023-05-08T15:58:46.008Z,101540.25
2023-05-08T16:03:47.713Z,101537.13
2023-05-08T16:08:49.523Z,101531.75
2023-05-08T16:13:52.500Z,101532.88
2023-05-08T16:18:54.188Z,101527.56
2023-05-08T16:23:55.936Z,101524.25
2023-05-08T16:28:59.086Z,101528.56
2023-05-08T16:34:00.758Z,101531.59
2023-05-08T16:39:02.465Z,101536.31
2023-05-08T16:44:05.582Z,101517.53
2023-05-08T16:49:07.394Z,101521.44
2023-05-08T16:54:09.082Z,101513.41
2023-05-08T16:59:12.282Z,101525.97
2023-05-08T17:04:14.002Z,101519.72
2023-05-08T17:09:18.035Z,101522.84
2023-05-08T17:14:21.132Z,101519.69
2023-05-08T17:19:22.852Z,101513.03
2023-05-08T17:24:24.579Z,101516.03
2023-05-08T17:29:27.699Z,101517.09
2023-05-08T17:34:29.447Z,101534.88
2023-05-08T17:39:31.132Z,101524.06
2023-05-08T17:44:34.182Z,101520.53
2023-05-08T17:49:36.137Z,101521.22
2023-05-08T17:54:37.946Z,101517.69
2023-05-08T17:59:41.061Z,101524.28
2023-05-08T18:04:42.806Z,101535.94
2023-05-08T18:09:44.557Z,101537.94
2023-05-08T18:14:47.982Z,101534.53
2023-05-08T18:19:49.757Z,101537.81
2023-05-08T18:24:52.864Z,101535.41
2023-05-08T18:29:55.948Z,101531.19
2023-05-08T18:34:57.651Z,101535.97
2023-05-08T18:39:59.347Z,101536.97
2023-05-08T18:45:02.987Z,101537.13
2023-05-08T18:50:05.536Z,101539.84
2023-05-08T18:55:07.873Z,101545.28
2023-05-08T19:00:13.621Z,101541.13
2023-05-08T19:05:15.668Z,101545.56
2023-05-08T19:10:17.434Z,101558.44
2023-05-08T19:15:20.579Z,101558.00
2023-05-08T19:20:22.542Z,101561.03
2023-05-08T19:25:24.553Z,101561.53
2023-05-08T19:30:27.638Z,101554.59
2023-05-08T19:35:29.442Z,101554.69
2023-05-08T19:40:31.839Z,101556.78
2023-05-08T19:45:34.938Z,101553.47
2023-05-08T19:50:36.647Z,101555.25
2023-05-08T19:55:38.363Z,101557.09
2023-05-08T20:00:41.529Z,101558.00
2023-05-08T20:05:43.284Z,101554.56
2023-05-08T20:10:45.895Z,101557.28
2023-05-08T20:15:49.018Z,101557.53
2023-05-08T20:20:50.835Z,101550.56
2023-05-08T20:25:54.172Z,101546.28
2023-05-08T20:30:57.274Z,101552.59
2023-05-08T20:35:59.038Z,101553.72
2023-05-08T20:41:01.333Z,101559.03
2023-05-08T20:46:04.758Z,101545.72
2023-05-08T20:51:06.531Z,101547.53
2023-05-08T20:56:08.642Z,101544.13
2023-05-08T21:01:11.790Z,101537.09
2023-05-08T21:06:13.630Z,101534.69
2023-05-08T21:11:16.289Z,101531.25
2023-05-08T21:16:19.344Z,101521.72
2023-05-08T21:21:21.067Z,101520.88
2023-05-08T21:26:23.658Z,101534.13
2023-05-08T21:31:28.682Z,101528.72
2023-05-08T21:36:32.079Z,101517.44
2023-05-08T21:41:33.813Z,101511.38
2023-05-08T21:46:36.885Z,101512.47
2023-05-08T21:51:38.620Z,101515.09
2023-05-08T21:56:40.374Z,101510.72
2023-05-08T22:01:44.197Z,101505.53
2023-05-08T22:06:45.994Z,101508.28
2023-05-08T22:11:47.692Z,101504.88
2023-05-08T22:16:50.935Z,101508.44
2023-05-08T22:21:52.653Z,101505.84
2023-05-08T22:26:54.411Z,101505.84
2023-05-08T22:31:57.529Z,101500.78
2023-05-08T22:36:59.252Z,101497.25
2023-05-08T22:42:02.037Z,101489.38
2023-05-08T22:47:05.554Z,101482.41
2023-05-08T22:52:07.478Z,101481.59
2023-05-08T22:57:09.232Z,101478.19
2023-05-08T23:02:12.262Z,101468.53
2023-05-08T23:07:13.929Z,101465.06
2023-05-08T23:12:15.714Z,101459.06
2023-05-08T23:17:18.752Z,101455.66
2023-05-08T23:22:20.543Z,101451.22
2023-05-08T23:27:22.257Z,101450.47
2023-05-08T23:32:25.312Z,101448.72
2023-05-08T23:37:27.022Z,101440.00
2023-05-08T23:42:28.747Z,101431.22
2023-05-08T23:47:31.880Z,101427.78
2023-05-08T23:52:33.592Z,101423.38
2023-05-08T23:57:35.583Z,101418.09
